sensor_id;sensor_type;location;lat;lon;timestamp;temperature;humidity
75782;DHT22;64400;44.762;37.698;2023-01-30T00:07:46;6.43;102.60
75782;DHT22;64400;44.762;37.698;2023-01-30T00:16:11;6.50;103.00
75782;DHT22;64400;44.762;37.698;2023-01-30T00:34:51;6.39;103.75
75782;DHT22;64400;44.762;37.698;2023-01-30T00:37:22;6.40;103.86
75782;DHT22;64400;44.762;37.698;2023-01-30T00:46:50;6.36;103.79
75782;DHT22;64400;44.762;37.698;2023-01-30T01:06:43;6.45;103.12
75782;DHT22;64400;44.762;37.698;2023-01-30T01:57:56;6.35;104.18
75782;DHT22;64400;44.762;37.698;2023-01-30T02:10:03;6.41;103.12
75782;DHT22;64400;44.762;37.698;2023-01-30T02:13:11;6.40;104.02
75782;DHT22;64400;44.762;37.698;2023-01-30T02:43:50;6.16;102.86
75782;DHT22;64400;44.762;37.698;2023-01-30T03:23:09;5.96;102.76
75782;DHT22;64400;44.762;37.698;2023-01-30T03:58:33;6.06;101.83
75782;DHT22;64400;44.762;37.698;2023-01-30T04:04:31;6.09;101.83
75782;DHT22;64400;44.762;37.698;2023-01-30T04:11:40;5.98;98.97
75782;DHT22;64400;44.762;37.698;2023-01-30T04:42:34;5.97;97.84
75782;DHT22;64400;44.762;37.698;2023-01-30T04:57:28;5.97;99.76
75782;DHT22;64400;44.762;37.698;2023-01-30T05:27:31;5.86;100.92
75782;DHT22;64400;44.762;37.698;2023-01-30T05:30:07;5.85;100.74
75782;DHT22;64400;44.762;37.698;2023-01-30T05:37:24;5.98;100.17
75782;DHT22;64400;44.762;37.698;2023-01-30T05:46:33;6.10;100.38
75782;DHT22;64400;44.762;37.698;2023-01-30T06:18:55;7.93;96.14
75782;DHT22;64400;44.762;37.698;2023-01-30T06:52:01;7.84;91.96
75782;DHT22;64400;44.762;37.698;2023-01-30T07:05:48;7.12;92.50
75782;DHT22;64400;44.762;37.698;2023-01-30T07:55:01;6.89;95.37
75782;DHT22;64400;44.762;37.698;2023-01-30T07:59:28;6.85;96.45
75782;DHT22;64400;44.762;37.698;2023-01-30T08:04:10;7.11;95.52
75782;DHT22;64400;44.762;37.698;2023-01-30T08:13:18;9.29;89.99
75782;DHT22;64400;44.762;37.698;2023-01-30T08:22:15;9.68;80.62
75782;DHT22;64400;44.762;37.698;2023-01-30T08:30:41;8.72;83.61
75782;DHT22;64400;44.762;37.698;2023-01-30T08:39:11;9.84;83.36
75782;DHT22;64400;44.762;37.698;2023-01-30T08:48:10;8.38;83.65
75782;DHT22;64400;44.762;37.698;2023-01-30T09:15:15;10.18;74.61
75782;DHT22;64400;44.762;37.698;2023-01-30T10:22:01;9.45;80.07
75782;DHT22;64400;44.762;37.698;2023-01-30T10:25:09;8.95;79.28
75782;DHT22;64400;44.762;37.698;2023-01-30T10:28:09;8.58;82.15
75782;DHT22;64400;44.762;37.698;2023-01-30T10:31:02;8.53;83.13
75782;DHT22;64400;44.762;37.698;2023-01-30T10:34:05;8.67;83.37
75782;DHT22;64400;44.762;37.698;2023-01-30T10:42:33;8.82;82.56
75782;DHT22;64400;44.762;37.698;2023-01-30T10:45:17;9.03;83.76
75782;DHT22;64400;44.762;37.698;2023-01-30T10:51:19;9.36;78.04
75782;DHT22;64400;44.762;37.698;2023-01-30T10:54:03;8.96;79.65
75782;DHT22;64400;44.762;37.698;2023-01-30T10:56:46;8.77;82.49
75782;DHT22;64400;44.762;37.698;2023-01-30T11:02:22;8.50;81.56
75782;DHT22;64400;44.762;37.698;2023-01-30T11:05:17;8.48;81.03
75782;DHT22;64400;44.762;37.698;2023-01-30T11:07:47;8.79;81.92
75782;DHT22;64400;44.762;37.698;2023-01-30T11:10:19;9.46;78.91
75782;DHT22;64400;44.762;37.698;2023-01-30T11:13:14;9.04;77.81
75782;DHT22;64400;44.762;37.698;2023-01-30T11:15:49;8.68;77.87
75782;DHT22;64400;44.762;37.698;2023-01-30T11:18:48;8.47;80.55
75782;DHT22;64400;44.762;37.698;2023-01-30T11:21:31;8.52;81.66
75782;DHT22;64400;44.762;37.698;2023-01-30T11:24:30;8.51;80.49
75782;DHT22;64400;44.762;37.698;2023-01-30T11:27:20;8.33;80.69
75782;DHT22;64400;44.762;37.698;2023-01-30T11:30:17;8.29;81.62
75782;DHT22;64400;44.762;37.698;2023-01-30T11:33:14;8.45;83.45
75782;DHT22;64400;44.762;37.698;2023-01-30T11:35:55;8.47;83.34
75782;DHT22;64400;44.762;37.698;2023-01-30T11:39:03;8.55;82.88
75782;DHT22;64400;44.762;37.698;2023-01-30T11:41:41;8.45;81.57
75782;DHT22;64400;44.762;37.698;2023-01-30T11:44:12;8.34;82.20
75782;DHT22;64400;44.762;37.698;2023-01-30T11:47:05;8.46;79.69
75782;DHT22;64400;44.762;37.698;2023-01-30T11:49:55;8.68;78.43
75782;DHT22;64400;44.762;37.698;2023-01-30T11:52:46;8.72;79.59
75782;DHT22;64400;44.762;37.698;2023-01-30T11:55:36;8.77;78.85
75782;DHT22;64400;44.762;37.698;2023-01-30T11:58:29;8.77;78.78
75782;DHT22;64400;44.762;37.698;2023-01-30T12:01:01;8.51;78.75
75782;DHT22;64400;44.762;37.698;2023-01-30T12:03:52;8.39;80.62
75782;DHT22;64400;44.762;37.698;2023-01-30T12:06:42;8.19;81.31
75782;DHT22;64400;44.762;37.698;2023-01-30T12:09:32;8.19;82.82
75782;DHT22;64400;44.762;37.698;2023-01-30T12:12:36;8.08;82.82
75782;DHT22;64400;44.762;37.698;2023-01-30T12:15:30;8.02;83.72
75782;DHT22;64400;44.762;37.698;2023-01-30T12:18:31;8.08;83.94
75782;DHT22;64400;44.762;37.698;2023-01-30T12:24:34;8.20;80.33
75782;DHT22;64400;44.762;37.698;2023-01-30T12:33:33;9.23;74.76
75782;DHT22;64400;44.762;37.698;2023-01-30T12:36:32;9.31;77.34
75782;DHT22;64400;44.762;37.698;2023-01-30T12:39:13;9.05;76.12
75782;DHT22;64400;44.762;37.698;2023-01-30T12:44:23;8.38;80.02
75782;DHT22;64400;44.762;37.698;2023-01-30T12:47:10;8.30;80.75
75782;DHT22;64400;44.762;37.698;2023-01-30T12:53:25;7.99;82.41
75782;DHT22;64400;44.762;37.698;2023-01-30T12:56:22;7.99;82.36
75782;DHT22;64400;44.762;37.698;2023-01-30T12:59:16;7.91;83.46
75782;DHT22;64400;44.762;37.698;2023-01-30T13:11:32;7.69;86.62
75782;DHT22;64400;44.762;37.698;2023-01-30T13:26:27;7.67;86.12
75782;DHT22;64400;44.762;37.698;2023-01-30T13:29:28;7.63;85.38
75782;DHT22;64400;44.762;37.698;2023-01-30T13:34:59;7.55;83.47
75782;DHT22;64400;44.762;37.698;2023-01-30T13:37:46;7.55;85.00
75782;DHT22;64400;44.762;37.698;2023-01-30T13:40:39;7.59;85.11
75782;DHT22;64400;44.762;37.698;2023-01-30T13:43:22;7.55;84.32
75782;DHT22;64400;44.762;37.698;2023-01-30T13:45:57;7.53;85.02
75782;DHT22;64400;44.762;37.698;2023-01-30T13:51:22;7.47;83.34
75782;DHT22;64400;44.762;37.698;2023-01-30T13:58:01;7.32;85.00
75782;DHT22;64400;44.762;37.698;2023-01-30T14:00:34;7.29;85.13
75782;DHT22;64400;44.762;37.698;2023-01-30T14:03:33;7.24;85.61
75782;DHT22;64400;44.762;37.698;2023-01-30T14:09:03;7.17;86.50
75782;DHT22;64400;44.762;37.698;2023-01-30T14:11:57;7.16;85.84
75782;DHT22;64400;44.762;37.698;2023-01-30T14:14:41;7.17;86.05
75782;DHT22;64400;44.762;37.698;2023-01-30T14:17:36;7.13;86.52
75782;DHT22;64400;44.762;37.698;2023-01-30T14:20:19;7.16;86.74
75782;DHT22;64400;44.762;37.698;2023-01-30T14:23:03;7.17;86.24
75782;DHT22;64400;44.762;37.698;2023-01-30T14:25:55;7.15;86.34
75782;DHT22;64400;44.762;37.698;2023-01-30T14:28:44;7.14;86.48
75782;DHT22;64400;44.762;37.698;2023-01-30T14:31:55;7.16;86.93
75782;DHT22;64400;44.762;37.698;2023-01-30T14:45:50;7.25;86.19
75782;DHT22;64400;44.762;37.698;2023-01-30T14:51:43;7.24;84.83
75782;DHT22;64400;44.762;37.698;2023-01-30T14:59:54;7.19;84.09
75782;DHT22;64400;44.762;37.698;2023-01-30T15:02:50;7.16;84.14
75782;DHT22;64400;44.762;37.698;2023-01-30T15:05:38;7.16;84.39
75782;DHT22;64400;44.762;37.698;2023-01-30T15:08:23;7.14;84.16
75782;DHT22;64400;44.762;37.698;2023-01-30T15:11:21;7.11;84.90
75782;DHT22;64400;44.762;37.698;2023-01-30T15:14:21;7.08;85.59
75782;DHT22;64400;44.762;37.698;2023-01-30T15:17:28;7.04;83.64
75782;DHT22;64400;44.762;37.698;2023-01-30T15:20:33;7.01;82.91
75782;DHT22;64400;44.762;37.698;2023-01-30T15:23:45;6.99;81.24
75782;DHT22;64400;44.762;37.698;2023-01-30T15:32:22;6.91;81.30
75782;DHT22;64400;44.762;37.698;2023-01-30T15:38:03;6.94;82.29
75782;DHT22;64400;44.762;37.698;2023-01-30T15:40:32;6.97;82.57
75782;DHT22;64400;44.762;37.698;2023-01-30T15:46:18;6.98;81.42
75782;DHT22;64400;44.762;37.698;2023-01-30T15:49:14;7.00;82.36
75782;DHT22;64400;44.762;37.698;2023-01-30T15:52:11;7.03;81.41
75782;DHT22;64400;44.762;37.698;2023-01-30T15:55:01;7.02;81.89
75782;DHT22;64400;44.762;37.698;2023-01-30T15:57:34;7.04;82.49
75782;DHT22;64400;44.762;37.698;2023-01-30T16:00:06;7.05;82.10
75782;DHT22;64400;44.762;37.698;2023-01-30T16:02:49;7.08;82.81
75782;DHT22;64400;44.762;37.698;2023-01-30T16:05:23;7.07;81.79
75782;DHT22;64400;44.762;37.698;2023-01-30T16:07:54;7.07;80.74
75782;DHT22;64400;44.762;37.698;2023-01-30T16:10:29;7.05;81.07
75782;DHT22;64400;44.762;37.698;2023-01-30T16:13:02;7.08;81.84
75782;DHT22;64400;44.762;37.698;2023-01-30T16:15:59;7.08;82.33
75782;DHT22;64400;44.762;37.698;2023-01-30T16:18:37;7.09;81.14
75782;DHT22;64400;44.762;37.698;2023-01-30T16:21:20;7.08;81.20
75782;DHT22;64400;44.762;37.698;2023-01-30T16:23:56;7.07;81.96
75782;DHT22;64400;44.762;37.698;2023-01-30T16:26:53;7.07;82.16
75782;DHT22;64400;44.762;37.698;2023-01-30T16:29:51;7.07;82.46
75782;DHT22;64400;44.762;37.698;2023-01-30T16:32:42;7.07;83.00
75782;DHT22;64400;44.762;37.698;2023-01-30T16:37:57;7.04;82.90
75782;DHT22;64400;44.762;37.698;2023-01-30T16:40:45;7.04;83.17
75782;DHT22;64400;44.762;37.698;2023-01-30T16:43:21;7.04;82.84
75782;DHT22;64400;44.762;37.698;2023-01-30T16:52:20;7.02;83.33
75782;DHT22;64400;44.762;37.698;2023-01-30T16:54:54;7.02;83.55
75782;DHT22;64400;44.762;37.698;2023-01-30T16:57:50;7.01;83.71
75782;DHT22;64400;44.762;37.698;2023-01-30T17:00:39;7.01;84.03
75782;DHT22;64400;44.762;37.698;2023-01-30T17:03:30;7.01;83.74
75782;DHT22;64400;44.762;37.698;2023-01-30T17:06:07;7.01;83.12
75782;DHT22;64400;44.762;37.698;2023-01-30T17:08:55;7.01;82.88
75782;DHT22;64400;44.762;37.698;2023-01-30T17:11:45;7.02;81.51
75782;DHT22;64400;44.762;37.698;2023-01-30T17:14:33;7.03;82.48
75782;DHT22;64400;44.762;37.698;2023-01-30T17:17:22;7.02;81.17
75782;DHT22;64400;44.762;37.698;2023-01-30T17:19:56;7.00;80.65
75782;DHT22;64400;44.762;37.698;2023-01-30T17:22:48;7.00;80.21
75782;DHT22;64400;44.762;37.698;2023-01-30T17:25:41;6.98;79.83
75782;DHT22;64400;44.762;37.698;2023-01-30T17:28:31;6.96;79.59
75782;DHT22;64400;44.762;37.698;2023-01-30T17:31:00;6.98;78.68
75782;DHT22;64400;44.762;37.698;2023-01-30T17:33:50;6.99;79.28
75782;DHT22;64400;44.762;37.698;2023-01-30T17:36:24;6.98;79.17
75782;DHT22;64400;44.762;37.698;2023-01-30T17:39:15;6.97;79.46
75782;DHT22;64400;44.762;37.698;2023-01-30T17:41:57;6.96;79.10
75782;DHT22;64400;44.762;37.698;2023-01-30T17:44:39;6.95;78.63
75782;DHT22;64400;44.762;37.698;2023-01-30T17:47:20;6.90;78.94
75782;DHT22;64400;44.762;37.698;2023-01-30T17:50:02;6.90;79.35
75782;DHT22;64400;44.762;37.698;2023-01-30T17:52:44;6.86;80.26
75782;DHT22;64400;44.762;37.698;2023-01-30T17:55:25;6.85;80.33
75782;DHT22;64400;44.762;37.698;2023-01-30T17:58:14;6.83;80.53
75782;DHT22;64400;44.762;37.698;2023-01-30T18:00:44;6.80;80.61
75782;DHT22;64400;44.762;37.698;2023-01-30T18:03:13;6.80;81.02
75782;DHT22;64400;44.762;37.698;2023-01-30T18:06:02;6.76;81.68
75782;DHT22;64400;44.762;37.698;2023-01-30T18:08:51;6.76;81.91
75782;DHT22;64400;44.762;37.698;2023-01-30T18:11:39;6.75;82.09
75782;DHT22;64400;44.762;37.698;2023-01-30T18:14:28;6.75;81.85
75782;DHT22;64400;44.762;37.698;2023-01-30T18:17:10;6.76;81.72
75782;DHT22;64400;44.762;37.698;2023-01-30T18:19:53;6.74;82.34
75782;DHT22;64400;44.762;37.698;2023-01-30T18:22:35;6.73;82.75
75782;DHT22;64400;44.762;37.698;2023-01-30T18:25:17;6.73;82.94
75782;DHT22;64400;44.762;37.698;2023-01-30T18:27:59;6.72;83.26
75782;DHT22;64400;44.762;37.698;2023-01-30T18:30:49;6.72;83.54
75782;DHT22;64400;44.762;37.698;2023-01-30T18:33:32;6.74;83.39
75782;DHT22;64400;44.762;37.698;2023-01-30T18:36:15;6.78;83.84
75782;DHT22;64400;44.762;37.698;2023-01-30T18:39:05;6.80;83.63
75782;DHT22;64400;44.762;37.698;2023-01-30T18:41:53;6.81;83.65
75782;DHT22;64400;44.762;37.698;2023-01-30T18:44:35;6.80;84.19
75782;DHT22;64400;44.762;37.698;2023-01-30T18:47:16;6.81;84.26
75782;DHT22;64400;44.762;37.698;2023-01-30T18:49:58;6.80;84.28
75782;DHT22;64400;44.762;37.698;2023-01-30T18:52:39;6.81;85.01
75782;DHT22;64400;44.762;37.698;2023-01-30T18:55:21;6.80;85.02
75782;DHT22;64400;44.762;37.698;2023-01-30T18:58:05;6.80;85.27
75782;DHT22;64400;44.762;37.698;2023-01-30T19:00:47;6.80;85.45
75782;DHT22;64400;44.762;37.698;2023-01-30T19:03:36;6.82;85.64
75782;DHT22;64400;44.762;37.698;2023-01-30T19:06:27;6.81;85.97
75782;DHT22;64400;44.762;37.698;2023-01-30T19:09:16;6.81;86.03
75782;DHT22;64400;44.762;37.698;2023-01-30T19:12:01;6.82;85.88
75782;DHT22;64400;44.762;37.698;2023-01-30T19:14:49;6.83;85.89
75782;DHT22;64400;44.762;37.698;2023-01-30T19:17:37;6.81;86.56
75782;DHT22;64400;44.762;37.698;2023-01-30T19:20:11;6.82;86.59
75782;DHT22;64400;44.762;37.698;2023-01-30T19:22:42;6.81;86.74
75782;DHT22;64400;44.762;37.698;2023-01-30T19:25:12;6.80;86.90
75782;DHT22;64400;44.762;37.698;2023-01-30T19:27:52;6.81;87.00
75782;DHT22;64400;44.762;37.698;2023-01-30T19:30:22;6.83;86.55
75782;DHT22;64400;44.762;37.698;2023-01-30T19:33:11;6.84;86.39
75782;DHT22;64400;44.762;37.698;2023-01-30T19:35:53;6.85;86.78
75782;DHT22;64400;44.762;37.698;2023-01-30T19:38:23;6.85;86.86
75782;DHT22;64400;44.762;37.698;2023-01-30T19:41:24;6.85;87.25
75782;DHT22;64400;44.762;37.698;2023-01-30T19:43:55;6.84;87.40
75782;DHT22;64400;44.762;37.698;2023-01-30T19:46:44;6.84;87.32
75782;DHT22;64400;44.762;37.698;2023-01-30T19:49:14;6.86;87.30
75782;DHT22;64400;44.762;37.698;2023-01-30T19:51:47;6.87;86.77
75782;DHT22;64400;44.762;37.698;2023-01-30T19:54:35;6.88;86.68
75782;DHT22;64400;44.762;37.698;2023-01-30T19:57:04;6.88;86.49
75782;DHT22;64400;44.762;37.698;2023-01-30T19:59:53;6.89;86.74
75782;DHT22;64400;44.762;37.698;2023-01-30T20:02:23;6.89;86.75
75782;DHT22;64400;44.762;37.698;2023-01-30T20:05:11;6.88;87.40
75782;DHT22;64400;44.762;37.698;2023-01-30T20:08:00;6.86;87.64
75782;DHT22;64400;44.762;37.698;2023-01-30T20:10:42;6.87;87.96
75782;DHT22;64400;44.762;37.698;2023-01-30T20:13:23;6.89;88.25
75782;DHT22;64400;44.762;37.698;2023-01-30T20:16:07;6.89;88.56
75782;DHT22;64400;44.762;37.698;2023-01-30T20:18:57;6.89;87.86
75782;DHT22;64400;44.762;37.698;2023-01-30T20:21:30;6.85;88.25
75782;DHT22;64400;44.762;37.698;2023-01-30T20:24:00;6.84;88.25
75782;DHT22;64400;44.762;37.698;2023-01-30T20:26:41;6.81;87.92
75782;DHT22;64400;44.762;37.698;2023-01-30T20:29:30;6.79;86.99
75782;DHT22;64400;44.762;37.698;2023-01-30T20:32:18;6.78;87.08
75782;DHT22;64400;44.762;37.698;2023-01-30T20:34:49;6.74;87.54
75782;DHT22;64400;44.762;37.698;2023-01-30T20:37:18;6.72;87.43
75782;DHT22;64400;44.762;37.698;2023-01-30T20:40:02;6.70;87.70
75782;DHT22;64400;44.762;37.698;2023-01-30T20:42:40;6.66;87.38
75782;DHT22;64400;44.762;37.698;2023-01-30T20:45:09;6.65;86.41
75782;DHT22;64400;44.762;37.698;2023-01-30T20:47:58;6.66;85.74
75782;DHT22;64400;44.762;37.698;2023-01-30T20:50:46;6.64;85.09
75782;DHT22;64400;44.762;37.698;2023-01-30T20:53:36;6.64;85.18
75782;DHT22;64400;44.762;37.698;2023-01-30T20:56:48;6.63;84.55
75782;DHT22;64400;44.762;37.698;2023-01-30T20:59:36;6.63;84.61
75782;DHT22;64400;44.762;37.698;2023-01-30T21:02:08;6.64;85.94
75782;DHT22;64400;44.762;37.698;2023-01-30T21:04:37;6.63;86.28
75782;DHT22;64400;44.762;37.698;2023-01-30T21:07:26;6.55;85.60
75782;DHT22;64400;44.762;37.698;2023-01-30T21:10:03;6.55;85.94
75782;DHT22;64400;44.762;37.698;2023-01-30T21:12:52;6.51;85.73
75782;DHT22;64400;44.762;37.698;2023-01-30T21:15:20;6.46;85.74
75782;DHT22;64400;44.762;37.698;2023-01-30T21:17:50;6.45;86.07
75782;DHT22;64400;44.762;37.698;2023-01-30T21:20:22;6.45;86.63
75782;DHT22;64400;44.762;37.698;2023-01-30T21:22:54;6.42;86.55
75782;DHT22;64400;44.762;37.698;2023-01-30T21:25:43;6.45;86.77
75782;DHT22;64400;44.762;37.698;2023-01-30T21:28:36;6.46;86.54
75782;DHT22;64400;44.762;37.698;2023-01-30T21:31:20;6.49;86.54
75782;DHT22;64400;44.762;37.698;2023-01-30T21:34:10;6.50;86.29
75782;DHT22;64400;44.762;37.698;2023-01-30T21:36:59;6.50;86.72
75782;DHT22;64400;44.762;37.698;2023-01-30T21:40:08;6.46;86.83
75782;DHT22;64400;44.762;37.698;2023-01-30T21:42:56;6.45;86.77
75782;DHT22;64400;44.762;37.698;2023-01-30T21:45:44;6.46;86.61
75782;DHT22;64400;44.762;37.698;2023-01-30T21:48:14;6.45;86.60
75782;DHT22;64400;44.762;37.698;2023-01-30T21:50:44;6.49;86.50
75782;DHT22;64400;44.762;37.698;2023-01-30T21:53:33;6.49;86.45
75782;DHT22;64400;44.762;37.698;2023-01-30T21:56:02;6.49;86.26
75782;DHT22;64400;44.762;37.698;2023-01-30T21:58:52;6.51;86.35
75782;DHT22;64400;44.762;37.698;2023-01-30T22:01:43;6.48;86.74
75782;DHT22;64400;44.762;37.698;2023-01-30T22:04:15;6.44;86.96
75782;DHT22;64400;44.762;37.698;2023-01-30T22:06:50;6.46;86.83
75782;DHT22;64400;44.762;37.698;2023-01-30T22:09:38;6.44;86.87
75782;DHT22;64400;44.762;37.698;2023-01-30T22:12:19;6.45;87.06
75782;DHT22;64400;44.762;37.698;2023-01-30T22:15:08;6.44;87.09
75782;DHT22;64400;44.762;37.698;2023-01-30T22:17:58;6.41;87.59
75782;DHT22;64400;44.762;37.698;2023-01-30T22:20:29;6.40;87.75
75782;DHT22;64400;44.762;37.698;2023-01-30T22:23:00;6.38;87.67
75782;DHT22;64400;44.762;37.698;2023-01-30T22:25:53;6.35;87.96
75782;DHT22;64400;44.762;37.698;2023-01-30T22:28:23;6.37;88.04
75782;DHT22;64400;44.762;37.698;2023-01-30T22:31:17;6.30;88.37
75782;DHT22;64400;44.762;37.698;2023-01-30T22:33:49;6.27;88.72
75782;DHT22;64400;44.762;37.698;2023-01-30T22:36:29;6.22;88.88
75782;DHT22;64400;44.762;37.698;2023-01-30T22:39:18;6.19;89.01
75782;DHT22;64400;44.762;37.698;2023-01-30T22:41:54;6.21;88.85
75782;DHT22;64400;44.762;37.698;2023-01-30T22:44:42;6.20;89.09
75782;DHT22;64400;44.762;37.698;2023-01-30T22:47:12;6.17;89.18
75782;DHT22;64400;44.762;37.698;2023-01-30T22:50:01;6.17;89.99
75782;DHT22;64400;44.762;37.698;2023-01-30T22:52:53;6.12;89.66
75782;DHT22;64400;44.762;37.698;2023-01-30T22:55:42;6.09;89.99
75782;DHT22;64400;44.762;37.698;2023-01-30T22:58:32;6.09;90.20
75782;DHT22;64400;44.762;37.698;2023-01-30T23:01:26;6.00;90.85
75782;DHT22;64400;44.762;37.698;2023-01-30T23:04:11;5.85;91.67
75782;DHT22;64400;44.762;37.698;2023-01-30T23:06:53;5.84;92.14
75782;DHT22;64400;44.762;37.698;2023-01-30T23:09:35;5.84;92.14
75782;DHT22;64400;44.762;37.698;2023-01-30T23:12:16;5.84;92.25
75782;DHT22;64400;44.762;37.698;2023-01-30T23:15:03;5.81;92.72
75782;DHT22;64400;44.762;37.698;2023-01-30T23:17:30;5.77;92.70
75782;DHT22;64400;44.762;37.698;2023-01-30T23:20:37;5.69;93.23
75782;DHT22;64400;44.762;37.698;2023-01-30T23:23:11;5.71;93.00
75782;DHT22;64400;44.762;37.698;2023-01-30T23:25:41;5.74;93.01
75782;DHT22;64400;44.762;37.698;2023-01-30T23:28:30;5.71;93.05
75782;DHT22;64400;44.762;37.698;2023-01-30T23:31:14;5.69;93.07
75782;DHT22;64400;44.762;37.698;2023-01-30T23:33:44;5.71;92.85
75782;DHT22;64400;44.762;37.698;2023-01-30T23:36:33;5.72;93.17
75782;DHT22;64400;44.762;37.698;2023-01-30T23:39:15;5.75;93.02
75782;DHT22;64400;44.762;37.698;2023-01-30T23:42:04;5.76;92.92
75782;DHT22;64400;44.762;37.698;2023-01-30T23:44:53;5.80;92.63
75782;DHT22;64400;44.762;37.698;2023-01-30T23:47:42;5.84;92.41
75782;DHT22;64400;44.762;37.698;2023-01-30T23:50:24;5.86;92.37
75782;DHT22;64400;44.762;37.698;2023-01-30T23:53:07;5.87;92.47
75782;DHT22;64400;44.762;37.698;2023-01-30T23:55:50;5.86;92.61
75782;DHT22;64400;44.762;37.698;2023-01-30T23:58:33;5.87;92.46
